createdAt,value
2023-04-29T00:01:07.588Z,2.00
2023-04-29T00:03:34.039Z,2.26
2023-04-29T00:06:00.569Z,2.02
2023-04-29T00:08:27.027Z,2.01
2023-04-29T00:10:53.354Z,1.94
2023-04-29T00:13:19.654Z,2.26
2023-04-29T00:15:45.950Z,2.25
2023-04-29T00:18:12.258Z,2.64
2023-04-29T00:20:38.543Z,2.36
2023-04-29T00:23:04.842Z,2.16
2023-04-29T00:25:31.171Z,2.06
2023-04-29T00:27:57.475Z,2.15
2023-04-29T00:30:23.774Z,2.13
2023-04-29T00:32:50.148Z,2.32
2023-04-29T00:35:16.477Z,2.46
2023-04-29T00:37:42.776Z,2.55
2023-04-29T00:40:09.096Z,2.82
2023-04-29T00:42:35.389Z,2.75
2023-04-29T00:45:01.674Z,2.44
2023-04-29T00:47:28.020Z,2.65
2023-04-29T00:49:54.449Z,2.62
2023-04-29T00:52:20.863Z,2.76
2023-04-29T00:54:47.185Z,3.07
2023-04-29T00:57:13.485Z,3.17
2023-04-29T00:59:44.092Z,3.07
2023-04-29T01:02:10.418Z,3.14
2023-04-29T01:04:36.775Z,3.88
2023-04-29T01:07:03.104Z,4.19
2023-04-29T01:09:29.433Z,4.43
2023-04-29T01:11:55.727Z,4.69
2023-04-29T01:14:22.024Z,4.61
2023-04-29T01:16:48.364Z,4.84
2023-04-29T01:19:14.668Z,4.13
2023-04-29T01:21:40.972Z,4.33
2023-04-29T01:24:07.344Z,4.40
2023-04-29T01:26:33.645Z,4.02
2023-04-29T01:28:59.945Z,3.53
2023-04-29T01:31:26.281Z,3.47
2023-04-29T01:33:52.590Z,3.90
2023-04-29T01:36:18.883Z,3.91
2023-04-29T01:38:45.239Z,4.19
2023-04-29T01:41:11.542Z,4.35
2023-04-29T01:43:37.915Z,4.11
2023-04-29T01:46:04.267Z,4.20
2023-04-29T01:48:30.595Z,4.29
2023-04-29T01:50:56.905Z,4.22
2023-04-29T01:53:23.214Z,4.20
2023-04-29T01:55:49.519Z,4.29
2023-04-29T01:58:15.821Z,4.08
2023-04-29T02:00:42.188Z,3.82
2023-04-29T02:03:08.657Z,3.87
2023-04-29T02:05:35.035Z,3.91
2023-04-29T02:08:01.350Z,4.12
2023-04-29T02:10:27.663Z,4.32
2023-04-29T02:12:53.970Z,4.20
2023-04-29T02:15:24.357Z,3.90
2023-04-29T02:17:50.774Z,4.11
2023-04-29T02:20:17.087Z,3.99
2023-04-29T02:22:43.407Z,3.74
2023-04-29T02:25:09.703Z,3.75
2023-04-29T02:27:36.013Z,3.70
2023-04-29T02:30:02.351Z,3.80
2023-04-29T02:32:28.776Z,3.74
2023-04-29T02:34:55.108Z,3.66
2023-04-29T02:37:21.458Z,3.74
2023-04-29T02:39:47.763Z,3.63
2023-04-29T02:42:14.066Z,3.80
2023-04-29T02:44:40.421Z,3.92
2023-04-29T02:47:06.713Z,4.28
2023-04-29T02:49:33.028Z,3.82
2023-04-29T02:51:59.379Z,4.03
2023-04-29T02:54:25.721Z,4.11
2023-04-29T02:56:52.025Z,4.08
2023-04-29T02:59:18.337Z,3.99
2023-04-29T03:01:44.649Z,3.93
2023-04-29T03:04:11.183Z,4.02
2023-04-29T03:06:37.675Z,4.24
2023-04-29T03:09:03.997Z,4.32
2023-04-29T03:11:30.309Z,4.21
2023-04-29T03:13:56.618Z,4.33
2023-04-29T03:16:22.940Z,4.25
2023-04-29T03:18:49.298Z,4.30
2023-04-29T03:21:15.607Z,4.27
2023-04-29T03:23:41.913Z,4.59
2023-04-29T03:26:08.314Z,4.71
2023-04-29T03:28:34.735Z,5.04
2023-04-29T03:31:01.070Z,5.20
2023-04-29T03:33:27.409Z,5.66
2023-04-29T03:35:53.716Z,5.67
2023-04-29T03:38:20.029Z,5.72
2023-04-29T03:40:46.332Z,5.26
2023-04-29T03:43:12.650Z,5.44
2023-04-29T03:45:38.962Z,5.38
2023-04-29T03:48:05.319Z,5.45
2023-04-29T03:50:31.736Z,5.54
2023-04-29T03:52:58.036Z,5.53
2023-04-29T03:55:24.333Z,5.69
2023-04-29T03:57:50.648Z,5.84
2023-04-29T04:00:16.955Z,6.13
2023-04-29T04:02:43.426Z,6.11
2023-04-29T04:05:09.893Z,5.99
2023-04-29T04:07:36.225Z,6.16
2023-04-29T04:10:02.512Z,6.14
2023-04-29T04:12:28.832Z,6.15
2023-04-29T04:14:55.136Z,6.39
2023-04-29T04:17:21.434Z,6.58
2023-04-29T04:19:47.851Z,6.75
2023-04-29T04:22:14.184Z,6.55
2023-04-29T04:24:40.479Z,6.92
2023-04-29T04:27:06.802Z,6.85
2023-04-29T04:29:33.104Z,6.72
2023-04-29T04:31:59.414Z,6.72
2023-04-29T04:34:25.738Z,6.95
2023-04-29T04:36:52.028Z,7.24
2023-04-29T04:39:18.319Z,7.59
2023-04-29T04:41:44.635Z,6.80
2023-04-29T04:44:10.941Z,6.91
2023-04-29T04:46:37.238Z,7.67
2023-04-29T04:49:03.581Z,7.96
2023-04-29T04:51:29.883Z,6.56
2023-04-29T04:53:56.210Z,6.79
2023-04-29T04:56:22.568Z,7.42
2023-04-29T04:58:48.857Z,7.54
2023-04-29T05:01:15.223Z,7.56
2023-04-29T05:03:41.859Z,7.17
2023-04-29T05:06:08.370Z,7.09
2023-04-29T05:08:34.730Z,6.47
2023-04-29T05:11:01.048Z,6.73
2023-04-29T05:13:27.430Z,7.08
2023-04-29T05:15:53.741Z,7.33
2023-04-29T05:18:20.263Z,7.13
2023-04-29T05:20:46.604Z,7.00
2023-04-29T05:23:12.923Z,7.56
2023-04-29T05:25:39.255Z,7.25
2023-04-29T05:28:05.560Z,7.34
2023-04-29T05:30:31.861Z,7.02
2023-04-29T05:32:58.223Z,7.79
2023-04-29T05:35:24.549Z,7.68
2023-04-29T05:37:50.903Z,7.84
2023-04-29T05:40:17.218Z,7.93
2023-04-29T05:42:43.546Z,7.74
2023-04-29T05:45:09.881Z,7.65
2023-04-29T05:47:36.216Z,7.79
2023-04-29T05:50:02.554Z,7.95
2023-04-29T05:52:28.884Z,7.86
2023-04-29T05:54:55.205Z,8.07
2023-04-29T05:57:21.524Z,8.09
2023-04-29T05:59:47.823Z,7.98
2023-04-29T06:02:15.340Z,8.23
2023-04-29T06:04:42.021Z,33.99
2023-04-29T06:07:08.583Z,9.17
2023-04-29T06:09:34.890Z,7.29
2023-04-29T06:12:01.170Z,7.53
2023-04-29T06:14:27.480Z,7.39
2023-04-29T06:16:53.813Z,7.59
2023-04-29T06:19:20.146Z,7.77
2023-04-29T06:21:46.439Z,7.88
2023-04-29T06:24:12.759Z,7.76
2023-04-29T06:26:39.057Z,7.94
2023-04-29T06:29:05.381Z,7.92
2023-04-29T06:31:31.713Z,7.85
2023-04-29T06:33:58.066Z,8.98
2023-04-29T06:36:24.357Z,11.97
2023-04-29T06:38:50.681Z,8.61
2023-04-29T06:41:16.973Z,8.66
2023-04-29T06:43:43.363Z,8.21
2023-04-29T06:46:09.735Z,8.97
2023-04-29T06:48:36.185Z,31.29
2023-04-29T06:51:02.505Z,9.27
2023-04-29T06:53:28.857Z,9.30
2023-04-29T06:55:55.160Z,10.33
2023-04-29T06:58:21.459Z,10.85
2023-04-29T07:00:47.814Z,13.56
2023-04-29T07:03:14.258Z,13.03
2023-04-29T07:05:43.383Z,12.00
2023-04-29T07:08:09.755Z,11.54
2023-04-29T07:10:36.056Z,10.99
2023-04-29T07:13:02.349Z,10.39
2023-04-29T07:15:28.946Z,10.19
2023-04-29T07:17:55.438Z,10.43
2023-04-29T07:20:22.563Z,10.87
2023-04-29T07:22:49.044Z,10.99
2023-04-29T07:25:15.370Z,10.91
2023-04-29T07:27:41.669Z,10.83
2023-04-29T07:30:07.986Z,10.50
2023-04-29T07:32:34.375Z,10.87
2023-04-29T07:35:00.731Z,10.50
2023-04-29T07:37:27.488Z,10.25
2023-04-29T07:39:53.915Z,10.79
2023-04-29T07:42:20.381Z,10.45
2023-04-29T07:44:46.829Z,10.88
2023-04-29T07:47:13.134Z,11.15
2023-04-29T07:49:39.431Z,11.38
2023-04-29T07:52:05.754Z,11.39
2023-04-29T07:54:32.052Z,12.08
2023-04-29T07:56:58.356Z,11.80
2023-04-29T07:59:24.881Z,11.19
2023-04-29T08:01:51.231Z,11.30
2023-04-29T08:04:17.652Z,10.73
2023-04-29T08:06:44.140Z,11.40
2023-04-29T08:09:10.447Z,11.54
2023-04-29T08:11:36.875Z,11.90
2023-04-29T08:14:03.295Z,13.13
2023-04-29T08:16:29.655Z,14.31
2023-04-29T08:18:55.966Z,11.19
2023-04-29T08:21:22.307Z,11.20
2023-04-29T08:23:48.613Z,12.48
2023-04-29T08:26:14.922Z,12.91
2023-04-29T08:28:41.366Z,14.88
2023-04-29T08:31:07.704Z,14.74
2023-04-29T08:33:34.020Z,13.22
2023-04-29T08:36:00.354Z,12.85
2023-04-29T08:38:26.796Z,12.84
2023-04-29T08:40:53.125Z,11.80
2023-04-29T08:43:19.459Z,12.39
2023-04-29T08:45:45.776Z,12.71
2023-04-29T08:48:12.227Z,12.98
2023-04-29T08:50:38.657Z,12.32
2023-04-29T08:53:04.955Z,13.17
2023-04-29T08:55:31.265Z,10.83
2023-04-29T08:57:57.586Z,11.21
2023-04-29T09:03:13.111Z,13.42
2023-04-29T09:05:39.476Z,10.45
2023-04-29T09:08:05.779Z,8.15
2023-04-29T09:10:32.110Z,6.59
2023-04-29T09:12:58.396Z,5.30
2023-04-29T09:15:24.701Z,5.68
2023-04-29T09:17:51.202Z,4.74
2023-04-29T09:20:17.591Z,6.75
2023-04-29T09:22:44.612Z,13.28
2023-04-29T09:25:11.054Z,14.02
2023-04-29T09:27:44.713Z,13.51
2023-04-29T09:30:11.044Z,11.84
2023-04-29T09:32:39.205Z,10.46
2023-04-29T09:35:05.729Z,9.51
2023-04-29T09:37:32.048Z,9.39
2023-04-29T09:39:58.343Z,10.76
2023-04-29T09:42:24.647Z,8.50
2023-04-29T09:44:51.356Z,7.16
2023-04-29T09:47:17.859Z,6.69
2023-04-29T09:55:27.510Z,9.27
2023-04-29T09:57:53.814Z,10.86
2023-04-29T10:00:20.153Z,11.54
2023-04-29T10:02:46.519Z,9.44
2023-04-29T10:05:12.956Z,6.28
2023-04-29T10:07:39.282Z,7.89
2023-04-29T10:10:05.586Z,7.50
2023-04-29T10:12:31.900Z,6.11
2023-04-29T10:14:58.218Z,5.73
2023-04-29T10:17:24.525Z,7.36
2023-04-29T10:19:50.820Z,6.86
2023-04-29T10:22:17.207Z,7.03
2023-04-29T10:24:43.501Z,6.26
2023-04-29T10:27:09.799Z,5.93
2023-04-29T10:29:36.133Z,6.57
2023-04-29T10:32:02.429Z,5.68
2023-04-29T10:34:28.799Z,6.19
2023-04-29T10:36:55.125Z,6.61
2023-04-29T10:39:21.427Z,7.55
2023-04-29T10:41:47.725Z,6.91
2023-04-29T10:44:14.044Z,6.23
2023-04-29T10:52:15.970Z,4.70
2023-04-29T10:54:43.540Z,4.51
2023-04-29T10:57:10.450Z,4.61
2023-04-29T10:59:36.760Z,3.97
2023-04-29T11:02:03.061Z,3.07
2023-04-29T11:04:29.406Z,2.18
2023-04-29T11:06:55.758Z,2.11
2023-04-29T11:09:22.069Z,1.98
2023-04-29T11:11:48.386Z,3.23
2023-04-29T11:14:14.717Z,3.83
2023-04-29T11:16:41.055Z,3.80
2023-04-29T11:19:07.387Z,3.38
2023-04-29T11:21:33.694Z,2.84
2023-04-29T11:23:59.998Z,3.33
2023-04-29T11:26:26.312Z,3.36
2023-04-29T11:28:52.679Z,3.34
2023-04-29T11:31:19.202Z,4.03
2023-04-29T11:33:45.625Z,3.88
2023-04-29T11:36:11.944Z,3.00
2023-04-29T11:38:38.232Z,3.08
2023-04-29T11:41:04.540Z,2.61
2023-04-29T11:43:30.918Z,3.26
2023-04-29T11:45:57.251Z,3.32
2023-04-29T11:48:23.564Z,3.17
2023-04-29T11:50:49.884Z,2.82
2023-04-29T11:53:16.174Z,2.26
2023-04-29T11:55:42.477Z,1.88
2023-04-29T11:58:08.797Z,2.06
2023-04-29T12:00:35.108Z,1.77
2023-04-29T12:03:01.501Z,1.84
2023-04-29T12:05:27.922Z,1.78
2023-04-29T12:07:54.270Z,1.87
2023-04-29T12:10:20.583Z,1.69
2023-04-29T12:12:46.916Z,1.52
2023-04-29T12:15:13.222Z,1.27
2023-04-29T12:17:39.615Z,1.22
2023-04-29T12:20:05.985Z,1.45
2023-04-29T12:22:32.279Z,1.47
2023-04-29T12:24:58.574Z,1.34
2023-04-29T12:27:24.898Z,1.28
2023-04-29T12:29:51.195Z,1.24
2023-04-29T12:32:17.490Z,1.69
2023-04-29T12:34:43.850Z,1.21
2023-04-29T12:37:10.146Z,1.26
2023-04-29T12:39:36.449Z,1.19
2023-04-29T12:42:02.767Z,1.28
2023-04-29T12:44:29.099Z,1.20
2023-04-29T12:46:57.716Z,1.07
2023-04-29T12:49:24.829Z,1.54
2023-04-29T12:51:51.167Z,1.34
2023-04-29T12:54:17.460Z,1.21
2023-04-29T12:56:43.776Z,1.17
2023-04-29T12:59:10.175Z,1.16
2023-04-29T13:01:36.668Z,1.24
2023-04-29T13:04:03.204Z,1.18
2023-04-29T13:06:29.558Z,1.28
2023-04-29T13:08:55.853Z,1.31
2023-04-29T13:11:22.149Z,1.26
2023-04-29T13:13:48.433Z,1.37
2023-04-29T13:16:14.737Z,1.30
2023-04-29T13:18:47.921Z,1.21
2023-04-29T13:21:25.171Z,1.31
2023-04-29T13:23:51.467Z,1.27
2023-04-29T13:26:17.749Z,1.05
2023-04-29T13:28:44.122Z,1.13
2023-04-29T13:31:10.409Z,1.23
2023-04-29T13:33:39.874Z,1.29
2023-04-29T13:36:06.524Z,1.30
2023-04-29T13:38:32.877Z,1.26
2023-04-29T13:40:59.165Z,1.32
2023-04-29T13:43:35.920Z,1.21
2023-04-29T13:46:03.508Z,1.07
2023-04-29T13:49:02.762Z,1.12
2023-04-29T13:51:56.189Z,1.39
2023-04-29T14:03:59.187Z,1.64
2023-04-29T14:06:25.580Z,1.82
2023-04-29T14:08:51.876Z,1.61
2023-04-29T14:11:18.189Z,1.35
2023-04-29T14:13:44.469Z,1.63
2023-04-29T14:16:10.796Z,1.27
2023-04-29T14:18:37.111Z,1.23
2023-04-29T14:21:03.402Z,1.50
2023-04-29T14:23:29.681Z,1.69
2023-04-29T14:26:06.284Z,1.54
2023-04-29T14:28:42.282Z,1.45
2023-04-29T14:31:08.637Z,1.46
2023-04-29T14:33:34.938Z,1.35
2023-04-29T14:36:01.212Z,1.47
2023-04-29T14:38:27.605Z,1.26
2023-04-29T14:40:53.868Z,0.99
2023-04-29T14:43:20.171Z,0.94
2023-04-29T14:45:46.577Z,1.05
2023-04-29T14:48:12.886Z,1.03
2023-04-29T14:50:39.156Z,1.28
2023-04-29T14:53:05.446Z,1.14
2023-04-29T14:55:31.744Z,1.03
2023-04-29T14:57:58.025Z,1.14
2023-04-29T15:00:24.329Z,1.20
2023-04-29T15:02:50.676Z,1.08
2023-04-29T15:05:16.962Z,0.92
2023-04-29T15:07:43.391Z,1.05
2023-04-29T15:10:09.683Z,1.12
2023-04-29T15:12:35.975Z,0.90
2023-04-29T15:15:02.281Z,0.95
2023-04-29T15:17:28.591Z,0.96
2023-04-29T15:19:54.904Z,1.00
2023-04-29T15:22:21.191Z,0.91
2023-04-29T15:27:14.640Z,0.91
2023-04-29T15:29:40.952Z,0.76
2023-04-29T15:32:07.276Z,0.76
2023-04-29T15:34:33.582Z,0.81
2023-04-29T15:36:59.894Z,0.78
2023-04-29T15:39:26.200Z,0.73
2023-04-29T15:41:52.511Z,0.76
2023-04-29T15:44:18.824Z,3.45
2023-04-29T15:46:45.114Z,10.18
2023-04-29T15:49:11.402Z,0.68
2023-04-29T15:51:37.954Z,0.58
2023-04-29T15:54:04.282Z,0.77
2023-04-29T15:56:30.569Z,0.74
2023-04-29T15:58:56.878Z,0.70
2023-04-29T16:01:23.205Z,0.72
2023-04-29T16:03:49.536Z,0.81
2023-04-29T16:06:16.164Z,0.72
2023-04-29T16:08:42.605Z,0.88
2023-04-29T16:11:08.972Z,0.94
2023-04-29T16:13:36.493Z,0.94
2023-04-29T16:16:02.961Z,0.88
2023-04-29T16:18:29.261Z,0.88
2023-04-29T16:20:55.564Z,0.98
2023-04-29T16:23:21.917Z,1.05
2023-04-29T16:25:48.326Z,0.88
2023-04-29T16:28:14.711Z,0.84
2023-04-29T16:30:40.998Z,0.94
2023-04-29T16:33:07.307Z,0.91
2023-04-29T16:35:33.628Z,0.86
2023-04-29T16:37:59.964Z,1.05
2023-04-29T16:40:26.358Z,0.97
2023-04-29T16:42:52.709Z,0.92
2023-04-29T16:45:19.709Z,0.93
2023-04-29T16:47:47.393Z,0.84
2023-04-29T16:50:13.691Z,1.04
2023-04-29T16:52:39.966Z,1.02
2023-04-29T16:55:06.266Z,0.87
2023-04-29T16:57:32.604Z,0.91
2023-04-29T16:59:58.900Z,0.97
2023-04-29T17:02:25.226Z,0.95
2023-04-29T17:04:51.708Z,1.12
2023-04-29T17:07:18.096Z,1.09
2023-04-29T17:09:44.380Z,1.01
2023-04-29T17:12:10.685Z,1.08
2023-04-29T17:14:39.103Z,1.07
2023-04-29T17:17:06.521Z,1.17
2023-04-29T17:19:32.826Z,1.20
2023-04-29T17:21:59.123Z,1.19
2023-04-29T17:24:25.416Z,1.12
2023-04-29T17:26:51.760Z,1.24
2023-04-29T17:29:18.055Z,1.13
2023-04-29T17:31:44.374Z,1.16
2023-04-29T17:34:10.697Z,1.33
2023-04-29T17:36:36.991Z,1.40
2023-04-29T17:39:03.279Z,1.51
2023-04-29T17:41:29.576Z,1.66
2023-04-29T17:43:55.848Z,1.39
2023-04-29T17:46:22.194Z,1.45
2023-04-29T17:48:48.501Z,1.42
2023-04-29T17:51:14.793Z,1.34
2023-04-29T17:53:41.080Z,1.31
2023-04-29T17:56:07.408Z,1.53
2023-04-29T17:58:33.689Z,1.42
2023-04-29T18:00:59.978Z,1.50
2023-04-29T18:03:26.421Z,1.32
2023-04-29T18:05:52.886Z,1.63
2023-04-29T18:08:19.275Z,1.61
2023-04-29T18:10:45.677Z,1.52
2023-04-29T18:13:11.982Z,1.49
2023-04-29T18:15:38.290Z,1.34
2023-04-29T18:18:04.652Z,1.41
2023-04-29T18:20:31.040Z,1.05
2023-04-29T18:22:57.341Z,1.28
2023-04-29T18:25:23.663Z,1.49
2023-04-29T18:27:49.999Z,1.28
2023-04-29T18:30:16.879Z,1.24
2023-04-29T18:32:43.334Z,1.22
2023-04-29T18:35:09.645Z,1.37
2023-04-29T18:37:35.929Z,1.39
2023-04-29T18:40:02.242Z,1.35
2023-04-29T18:42:28.555Z,1.50
2023-04-29T18:44:54.876Z,1.53
2023-04-29T18:47:21.420Z,1.45
2023-04-29T18:49:47.721Z,1.38
2023-04-29T18:52:14.033Z,1.34
2023-04-29T18:54:40.345Z,1.36
2023-04-29T18:57:06.633Z,1.42
2023-04-29T18:59:32.926Z,1.23
2023-04-29T19:01:59.436Z,1.28
2023-04-29T19:04:25.940Z,1.42
2023-04-29T19:06:52.378Z,1.55
2023-04-29T19:09:18.878Z,1.38
2023-04-29T19:11:45.204Z,1.32
2023-04-29T19:14:11.508Z,1.43
2023-04-29T19:16:37.934Z,1.71
2023-04-29T19:19:04.388Z,1.49
2023-04-29T19:21:30.897Z,1.51
2023-04-29T19:23:57.201Z,1.75
2023-04-29T19:26:23.486Z,1.87
2023-04-29T19:28:49.910Z,1.59
2023-04-29T19:31:16.424Z,1.89
2023-04-29T19:33:42.733Z,2.36
2023-04-29T19:36:09.040Z,1.82
2023-04-29T19:38:35.477Z,1.82
2023-04-29T19:41:01.777Z,1.69
2023-04-29T19:43:28.080Z,1.71
2023-04-29T19:45:54.409Z,2.13
2023-04-29T19:48:20.754Z,2.12
2023-04-29T19:50:47.068Z,2.09
2023-04-29T19:53:13.393Z,2.09
2023-04-29T19:55:39.842Z,1.82
2023-04-29T19:58:06.212Z,2.11
2023-04-29T20:00:32.551Z,1.70
2023-04-29T20:02:58.867Z,1.95
2023-04-29T20:05:25.184Z,1.90
2023-04-29T20:07:51.505Z,1.73
2023-04-29T20:10:17.800Z,1.69
2023-04-29T20:12:44.101Z,1.70
2023-04-29T20:15:10.460Z,1.57
2023-04-29T20:17:36.905Z,1.46
2023-04-29T20:20:03.286Z,1.43
2023-04-29T20:22:29.771Z,1.61
2023-04-29T20:24:56.061Z,1.57
2023-04-29T20:27:22.356Z,2.51
2023-04-29T20:29:48.689Z,2.57
2023-04-29T20:32:15.025Z,2.12
2023-04-29T20:34:41.334Z,2.13
2023-04-29T20:37:07.773Z,2.07
2023-04-29T20:39:34.071Z,2.19
2023-04-29T20:42:00.370Z,1.99
2023-04-29T20:44:26.677Z,2.20
2023-04-29T20:46:52.985Z,2.08
2023-04-29T20:49:19.805Z,2.03
2023-04-29T20:51:46.198Z,2.05
2023-04-29T20:54:12.501Z,1.87
2023-04-29T20:56:38.802Z,1.80
2023-04-29T20:59:05.122Z,1.70
2023-04-29T21:01:31.447Z,1.54
2023-04-29T21:03:57.761Z,1.52
2023-04-29T21:06:24.121Z,1.41
2023-04-29T21:08:50.431Z,1.48
2023-04-29T21:11:16.747Z,1.54
2023-04-29T21:13:43.071Z,1.54
2023-04-29T21:16:09.424Z,1.43
2023-04-29T21:18:35.759Z,1.57
2023-04-29T21:21:02.110Z,1.39
2023-04-29T21:23:28.399Z,1.43
2023-04-29T21:25:54.705Z,1.23
2023-04-29T21:28:21.039Z,1.23
2023-04-29T21:30:47.338Z,1.40
2023-04-29T21:33:13.639Z,1.31
2023-04-29T21:35:40.058Z,1.25
2023-04-29T21:38:06.389Z,1.36
2023-04-29T21:40:32.682Z,1.26
2023-04-29T21:42:59.006Z,1.34
2023-04-29T21:45:25.286Z,1.35
2023-04-29T21:47:51.611Z,1.58
2023-04-29T21:50:17.943Z,1.63
2023-04-29T21:52:44.251Z,2.08
2023-04-29T21:55:10.553Z,1.54
2023-04-29T21:57:44.157Z,1.86
2023-04-29T22:00:11.684Z,2.08
2023-04-29T22:02:38.106Z,2.46
2023-04-29T22:05:04.483Z,2.37
2023-04-29T22:07:30.783Z,2.56
2023-04-29T22:09:57.092Z,2.10
2023-04-29T22:12:23.415Z,2.16
2023-04-29T22:14:49.728Z,2.05
2023-04-29T22:17:16.037Z,2.29
2023-04-29T22:19:42.330Z,2.27
2023-04-29T22:22:08.625Z,2.41
2023-04-29T22:24:34.998Z,2.24
2023-04-29T22:27:01.310Z,2.40
2023-04-29T22:29:27.638Z,2.71
2023-04-29T22:31:54.046Z,2.85
2023-04-29T22:34:20.366Z,2.94
2023-04-29T22:36:46.686Z,2.82
2023-04-29T22:39:13.009Z,3.19
2023-04-29T22:41:39.310Z,3.34
2023-04-29T22:44:05.613Z,3.12
2023-04-29T22:46:32.001Z,3.19
2023-04-29T22:48:58.357Z,3.39
2023-04-29T22:51:24.669Z,3.24
2023-04-29T22:53:50.981Z,3.54
2023-04-29T22:56:17.340Z,3.49
2023-04-29T22:58:43.639Z,3.48
2023-04-29T23:01:11.889Z,3.43
2023-04-29T23:03:38.484Z,3.65
2023-04-29T23:06:04.854Z,3.56
2023-04-29T23:08:31.239Z,3.74
2023-04-29T23:10:57.552Z,3.77
2023-04-29T23:13:23.934Z,4.13
2023-04-29T23:15:50.280Z,4.29
2023-04-29T23:18:16.629Z,4.57
2023-04-29T23:20:42.920Z,4.86
2023-04-29T23:23:09.241Z,4.80
2023-04-29T23:25:35.538Z,5.14
2023-04-29T23:28:01.856Z,5.01
2023-04-29T23:30:28.232Z,4.98
2023-04-29T23:32:54.598Z,4.68
2023-04-29T23:35:20.945Z,4.34
2023-04-29T23:37:47.263Z,4.67
2023-04-29T23:40:13.562Z,4.37
2023-04-29T23:42:39.893Z,4.40
2023-04-29T23:45:06.228Z,4.46
2023-04-29T23:47:32.596Z,4.65
2023-04-29T23:49:58.913Z,4.50
2023-04-29T23:52:25.228Z,4.86
2023-04-29T23:54:51.548Z,4.84
2023-04-29T23:57:17.854Z,4.80
2023-04-29T23:59:44.183Z,4.96
